sensor_id;sensor_type;location;lat;lon;timestamp;P1;durP1;ratioP1;P2;durP2;ratioP2
49183;SDS011;35021;49.214;12.270;2023-05-10T00:00:21;3.30;;;1.98;;
49183;SDS011;35021;49.214;12.270;2023-05-10T00:02:50;2.97;;;2.28;;
49183;SDS011;35021;49.214;12.270;2023-05-10T00:05:17;2.33;;;2.10;;
49183;SDS011;35021;49.214;12.270;2023-05-10T00:07:44;3.80;;;2.22;;
49183;SDS011;35021;49.214;12.270;2023-05-10T00:10:11;3.58;;;2.10;;
49183;SDS011;35021;49.214;12.270;2023-05-10T00:12:38;3.00;;;2.13;;
49183;SDS011;35021;49.214;12.270;2023-05-10T00:15:05;2.20;;;2.00;;
49183;SDS011;35021;49.214;12.270;2023-05-10T00:17:33;4.47;;;2.45;;
49183;SDS011;35021;49.214;12.270;2023-05-10T00:19:59;3.50;;;2.15;;
49183;SDS011;35021;49.214;12.270;2023-05-10T00:22:27;2.22;;;1.85;;
49183;SDS011;35021;49.214;12.270;2023-05-10T00:24:53;2.85;;;2.10;;
49183;SDS011;35021;49.214;12.270;2023-05-10T00:27:20;3.22;;;2.08;;
49183;SDS011;35021;49.214;12.270;2023-05-10T00:29:47;3.03;;;2.20;;
49183;SDS011;35021;49.214;12.270;2023-05-10T00:32:14;2.97;;;2.20;;
49183;SDS011;35021;49.214;12.270;2023-05-10T00:34:41;3.47;;;2.17;;
49183;SDS011;35021;49.214;12.270;2023-05-10T00:37:08;2.80;;;2.00;;
49183;SDS011;35021;49.214;12.270;2023-05-10T00:39:35;3.38;;;2.30;;
49183;SDS011;35021;49.214;12.270;2023-05-10T00:42:02;3.50;;;2.10;;
49183;SDS011;35021;49.214;12.270;2023-05-10T00:44:30;4.88;;;2.53;;
49183;SDS011;35021;49.214;12.270;2023-05-10T00:46:57;2.53;;;2.17;;
49183;SDS011;35021;49.214;12.270;2023-05-10T00:49:25;2.78;;;2.20;;
49183;SDS011;35021;49.214;12.270;2023-05-10T00:51:52;3.17;;;2.20;;
49183;SDS011;35021;49.214;12.270;2023-05-10T00:54:19;2.58;;;2.08;;
49183;SDS011;35021;49.214;12.270;2023-05-10T00:56:46;2.92;;;2.15;;
49183;SDS011;35021;49.214;12.270;2023-05-10T00:59:15;2.80;;;2.20;;
49183;SDS011;35021;49.214;12.270;2023-05-10T01:01:43;3.50;;;1.95;;
49183;SDS011;35021;49.214;12.270;2023-05-10T01:04:11;2.20;;;1.88;;
49183;SDS011;35021;49.214;12.270;2023-05-10T01:06:40;2.50;;;2.03;;
49183;SDS011;35021;49.214;12.270;2023-05-10T01:09:07;3.10;;;2.17;;
49183;SDS011;35021;49.214;12.270;2023-05-10T01:11:34;4.00;;;2.00;;
49183;SDS011;35021;49.214;12.270;2023-05-10T01:14:04;2.92;;;1.90;;
49183;SDS011;35021;49.214;12.270;2023-05-10T01:16:33;2.35;;;1.90;;
49183;SDS011;35021;49.214;12.270;2023-05-10T01:19:12;2.35;;;2.15;;
49183;SDS011;35021;49.214;12.270;2023-05-10T01:21:48;2.13;;;1.80;;
49183;SDS011;35021;49.214;12.270;2023-05-10T01:30:22;4.03;;;2.15;;
49183;SDS011;35021;49.214;12.270;2023-05-10T01:33:07;3.25;;;2.45;;
49183;SDS011;35021;49.214;12.270;2023-05-10T01:35:47;3.00;;;1.80;;
49183;SDS011;35021;49.214;12.270;2023-05-10T01:39:01;2.83;;;2.50;;
49183;SDS011;35021;49.214;12.270;2023-05-10T01:41:39;2.45;;;2.15;;
49183;SDS011;35021;49.214;12.270;2023-05-10T01:47:09;2.35;;;1.95;;
49183;SDS011;35021;49.214;12.270;2023-05-10T01:49:39;2.55;;;2.08;;
49183;SDS011;35021;49.214;12.270;2023-05-10T01:52:10;2.85;;;2.00;;
49183;SDS011;35021;49.214;12.270;2023-05-10T01:54:55;2.72;;;2.20;;
49183;SDS011;35021;49.214;12.270;2023-05-10T01:57:27;2.10;;;1.90;;
49183;SDS011;35021;49.214;12.270;2023-05-10T02:00:00;2.90;;;2.08;;
49183;SDS011;35021;49.214;12.270;2023-05-10T02:02:32;3.00;;;1.98;;
49183;SDS011;35021;49.214;12.270;2023-05-10T02:05:01;2.15;;;1.90;;
49183;SDS011;35021;49.214;12.270;2023-05-10T02:07:31;3.65;;;2.35;;
49183;SDS011;35021;49.214;12.270;2023-05-10T02:10:02;2.42;;;2.22;;
49183;SDS011;35021;49.214;12.270;2023-05-10T02:12:31;2.88;;;2.00;;
49183;SDS011;35021;49.214;12.270;2023-05-10T02:15:03;2.53;;;2.33;;
49183;SDS011;35021;49.214;12.270;2023-05-10T02:17:33;2.20;;;2.00;;
49183;SDS011;35021;49.214;12.270;2023-05-10T02:20:03;2.55;;;2.35;;
49183;SDS011;35021;49.214;12.270;2023-05-10T02:22:32;2.17;;;1.98;;
49183;SDS011;35021;49.214;12.270;2023-05-10T02:25:00;3.10;;;2.10;;
49183;SDS011;35021;49.214;12.270;2023-05-10T02:27:29;3.10;;;2.10;;
49183;SDS011;35021;49.214;12.270;2023-05-10T02:29:56;4.28;;;2.35;;
49183;SDS011;35021;49.214;12.270;2023-05-10T02:32:24;2.85;;;2.13;;
49183;SDS011;35021;49.214;12.270;2023-05-10T02:34:53;2.58;;;2.13;;
49183;SDS011;35021;49.214;12.270;2023-05-10T02:37:22;3.13;;;2.38;;
49183;SDS011;35021;49.214;12.270;2023-05-10T02:39:50;2.47;;;2.28;;
49183;SDS011;35021;49.214;12.270;2023-05-10T02:42:25;3.05;;;2.17;;
49183;SDS011;35021;49.214;12.270;2023-05-10T02:44:59;2.42;;;2.22;;
49183;SDS011;35021;49.214;12.270;2023-05-10T02:47:28;2.33;;;2.10;;
49183;SDS011;35021;49.214;12.270;2023-05-10T02:49:56;2.30;;;2.10;;
49183;SDS011;35021;49.214;12.270;2023-05-10T02:52:23;2.42;;;2.10;;
49183;SDS011;35021;49.214;12.270;2023-05-10T02:54:58;3.38;;;2.47;;
49183;SDS011;35021;49.214;12.270;2023-05-10T02:57:33;2.70;;;2.20;;
49183;SDS011;35021;49.214;12.270;2023-05-10T03:00:01;3.35;;;2.20;;
49183;SDS011;35021;49.214;12.270;2023-05-10T03:02:30;2.42;;;2.22;;
49183;SDS011;35021;49.214;12.270;2023-05-10T03:04:57;2.40;;;2.10;;
49183;SDS011;35021;49.214;12.270;2023-05-10T03:07:24;2.60;;;2.35;;
49183;SDS011;35021;49.214;12.270;2023-05-10T03:09:51;4.60;;;2.50;;
49183;SDS011;35021;49.214;12.270;2023-05-10T03:12:23;3.35;;;2.13;;
49183;SDS011;35021;49.214;12.270;2023-05-10T03:15:22;3.65;;;2.80;;
49183;SDS011;35021;49.214;12.270;2023-05-10T03:18:04;4.55;;;2.40;;
49183;SDS011;35021;49.214;12.270;2023-05-10T03:20:46;2.83;;;2.40;;
49183;SDS011;35021;49.214;12.270;2023-05-10T03:25:52;3.55;;;2.63;;
49183;SDS011;35021;49.214;12.270;2023-05-10T03:28:20;3.70;;;2.20;;
49183;SDS011;35021;49.214;12.270;2023-05-10T03:30:48;3.30;;;2.58;;
49183;SDS011;35021;49.214;12.270;2023-05-10T03:33:16;3.55;;;2.50;;
49183;SDS011;35021;49.214;12.270;2023-05-10T03:35:43;3.45;;;2.45;;
49183;SDS011;35021;49.214;12.270;2023-05-10T03:38:12;2.80;;;2.50;;
49183;SDS011;35021;49.214;12.270;2023-05-10T03:40:39;2.40;;;2.20;;
49183;SDS011;35021;49.214;12.270;2023-05-10T03:43:06;3.03;;;2.70;;
49183;SDS011;35021;49.214;12.270;2023-05-10T03:45:33;4.90;;;3.42;;
49183;SDS011;35021;49.214;12.270;2023-05-10T03:48:00;3.78;;;2.92;;
49183;SDS011;35021;49.214;12.270;2023-05-10T03:50:27;3.60;;;2.95;;
49183;SDS011;35021;49.214;12.270;2023-05-10T03:52:54;3.33;;;3.03;;
49183;SDS011;35021;49.214;12.270;2023-05-10T03:55:21;3.38;;;3.00;;
49183;SDS011;35021;49.214;12.270;2023-05-10T03:57:48;4.40;;;3.00;;
49183;SDS011;35021;49.214;12.270;2023-05-10T04:00:20;4.60;;;2.88;;
49183;SDS011;35021;49.214;12.270;2023-05-10T04:02:46;3.95;;;2.70;;
49183;SDS011;35021;49.214;12.270;2023-05-10T04:05:14;5.05;;;2.70;;
49183;SDS011;35021;49.214;12.270;2023-05-10T04:07:40;3.88;;;2.78;;
49183;SDS011;35021;49.214;12.270;2023-05-10T04:10:07;4.95;;;3.03;;
49183;SDS011;35021;49.214;12.270;2023-05-10T04:12:35;3.20;;;2.90;;
49183;SDS011;35021;49.214;12.270;2023-05-10T04:15:02;4.22;;;3.00;;
49183;SDS011;35021;49.214;12.270;2023-05-10T04:17:29;3.10;;;2.63;;
49183;SDS011;35021;49.214;12.270;2023-05-10T04:19:57;4.63;;;3.08;;
49183;SDS011;35021;49.214;12.270;2023-05-10T04:22:24;3.83;;;3.00;;
49183;SDS011;35021;49.214;12.270;2023-05-10T04:24:51;3.30;;;3.00;;
49183;SDS011;35021;49.214;12.270;2023-05-10T04:27:18;3.25;;;2.70;;
49183;SDS011;35021;49.214;12.270;2023-05-10T04:29:45;3.83;;;3.30;;
49183;SDS011;35021;49.214;12.270;2023-05-10T04:32:11;3.20;;;2.90;;
49183;SDS011;35021;49.214;12.270;2023-05-10T04:34:38;5.03;;;3.50;;
49183;SDS011;35021;49.214;12.270;2023-05-10T04:37:05;4.85;;;2.85;;
49183;SDS011;35021;49.214;12.270;2023-05-10T04:39:35;3.05;;;2.63;;
49183;SDS011;35021;49.214;12.270;2023-05-10T04:42:02;3.47;;;2.40;;
49183;SDS011;35021;49.214;12.270;2023-05-10T04:44:32;2.85;;;2.58;;
49183;SDS011;35021;49.214;12.270;2023-05-10T04:46:59;3.53;;;3.20;;
49183;SDS011;35021;49.214;12.270;2023-05-10T04:49:28;3.35;;;2.70;;
49183;SDS011;35021;49.214;12.270;2023-05-10T04:51:56;2.80;;;2.55;;
49183;SDS011;35021;49.214;12.270;2023-05-10T04:54:22;3.28;;;2.80;;
49183;SDS011;35021;49.214;12.270;2023-05-10T04:56:49;3.20;;;2.53;;
49183;SDS011;35021;49.214;12.270;2023-05-10T04:59:16;4.38;;;2.67;;
49183;SDS011;35021;49.214;12.270;2023-05-10T05:01:43;2.72;;;2.40;;
49183;SDS011;35021;49.214;12.270;2023-05-10T05:04:10;3.10;;;2.83;;
49183;SDS011;35021;49.214;12.270;2023-05-10T05:06:37;3.50;;;2.58;;
49183;SDS011;35021;49.214;12.270;2023-05-10T05:09:04;5.10;;;2.90;;
49183;SDS011;35021;49.214;12.270;2023-05-10T05:11:31;2.50;;;2.13;;
49183;SDS011;35021;49.214;12.270;2023-05-10T05:13:58;2.72;;;2.53;;
49183;SDS011;35021;49.214;12.270;2023-05-10T05:16:25;3.47;;;2.95;;
49183;SDS011;35021;49.214;12.270;2023-05-10T05:18:53;3.25;;;2.72;;
49183;SDS011;35021;49.214;12.270;2023-05-10T05:21:20;3.15;;;2.85;;
49183;SDS011;35021;49.214;12.270;2023-05-10T05:23:47;3.55;;;2.60;;
49183;SDS011;35021;49.214;12.270;2023-05-10T05:26:14;4.07;;;2.60;;
49183;SDS011;35021;49.214;12.270;2023-05-10T05:28:42;3.17;;;2.88;;
49183;SDS011;35021;49.214;12.270;2023-05-10T05:31:09;4.47;;;3.00;;
49183;SDS011;35021;49.214;12.270;2023-05-10T05:33:36;5.13;;;3.75;;
49183;SDS011;35021;49.214;12.270;2023-05-10T05:36:03;4.55;;;3.17;;
49183;SDS011;35021;49.214;12.270;2023-05-10T05:38:31;5.10;;;2.90;;
49183;SDS011;35021;49.214;12.270;2023-05-10T05:40:58;3.20;;;2.80;;
49183;SDS011;35021;49.214;12.270;2023-05-10T05:43:25;4.15;;;2.90;;
49183;SDS011;35021;49.214;12.270;2023-05-10T05:45:52;4.50;;;2.95;;
49183;SDS011;35021;49.214;12.270;2023-05-10T05:48:24;5.82;;;3.10;;
49183;SDS011;35021;49.214;12.270;2023-05-10T05:50:54;4.78;;;2.55;;
49183;SDS011;35021;49.214;12.270;2023-05-10T05:53:22;3.50;;;2.80;;
49183;SDS011;35021;49.214;12.270;2023-05-10T05:55:57;5.25;;;3.45;;
49183;SDS011;35021;49.214;12.270;2023-05-10T05:58:25;3.88;;;3.25;;
49183;SDS011;35021;49.214;12.270;2023-05-10T06:00:52;4.35;;;3.42;;
49183;SDS011;35021;49.214;12.270;2023-05-10T06:03:19;3.95;;;3.50;;
49183;SDS011;35021;49.214;12.270;2023-05-10T06:05:46;3.83;;;3.40;;
49183;SDS011;35021;49.214;12.270;2023-05-10T06:08:14;4.38;;;3.40;;
49183;SDS011;35021;49.214;12.270;2023-05-10T06:10:41;3.60;;;3.30;;
49183;SDS011;35021;49.214;12.270;2023-05-10T06:13:08;5.60;;;3.80;;
49183;SDS011;35021;49.214;12.270;2023-05-10T06:15:35;4.85;;;3.65;;
49183;SDS011;35021;49.214;12.270;2023-05-10T06:18:02;4.50;;;3.45;;
49183;SDS011;35021;49.214;12.270;2023-05-10T06:20:29;4.85;;;3.47;;
49183;SDS011;35021;49.214;12.270;2023-05-10T06:22:57;4.20;;;3.13;;
49183;SDS011;35021;49.214;12.270;2023-05-10T06:25:25;4.80;;;3.45;;
49183;SDS011;35021;49.214;12.270;2023-05-10T06:27:51;4.07;;;2.92;;
49183;SDS011;35021;49.214;12.270;2023-05-10T06:30:24;5.93;;;2.60;;
49183;SDS011;35021;49.214;12.270;2023-05-10T06:32:54;3.20;;;2.90;;
49183;SDS011;35021;49.214;12.270;2023-05-10T06:35:21;4.53;;;3.35;;
49183;SDS011;35021;49.214;12.270;2023-05-10T06:37:48;4.50;;;3.30;;
49183;SDS011;35021;49.214;12.270;2023-05-10T06:40:16;4.63;;;3.08;;
49183;SDS011;35021;49.214;12.270;2023-05-10T06:42:43;3.08;;;2.78;;
49183;SDS011;35021;49.214;12.270;2023-05-10T06:45:11;3.25;;;2.70;;
49183;SDS011;35021;49.214;12.270;2023-05-10T06:47:39;4.07;;;3.20;;
49183;SDS011;35021;49.214;12.270;2023-05-10T06:50:07;3.30;;;2.97;;
49183;SDS011;35021;49.214;12.270;2023-05-10T06:52:34;4.07;;;3.00;;
49183;SDS011;35021;49.214;12.270;2023-05-10T06:55:02;3.00;;;2.70;;
49183;SDS011;35021;49.214;12.270;2023-05-10T06:57:30;7.05;;;3.17;;
49183;SDS011;35021;49.214;12.270;2023-05-10T06:59:58;4.80;;;3.30;;
49183;SDS011;35021;49.214;12.270;2023-05-10T07:02:25;3.47;;;2.70;;
49183;SDS011;35021;49.214;12.270;2023-05-10T07:04:53;5.97;;;3.30;;
49183;SDS011;35021;49.214;12.270;2023-05-10T07:07:20;4.43;;;3.20;;
49183;SDS011;35021;49.214;12.270;2023-05-10T07:09:47;4.70;;;3.47;;
49183;SDS011;35021;49.214;12.270;2023-05-10T07:12:15;3.95;;;3.30;;
49183;SDS011;35021;49.214;12.270;2023-05-10T07:14:42;5.15;;;2.92;;
49183;SDS011;35021;49.214;12.270;2023-05-10T07:17:09;4.13;;;3.00;;
49183;SDS011;35021;49.214;12.270;2023-05-10T07:19:36;3.00;;;2.70;;
49183;SDS011;35021;49.214;12.270;2023-05-10T07:22:03;3.83;;;2.97;;
49183;SDS011;35021;49.214;12.270;2023-05-10T07:24:30;2.80;;;2.53;;
49183;SDS011;35021;49.214;12.270;2023-05-10T07:26:58;4.05;;;3.03;;
49183;SDS011;35021;49.214;12.270;2023-05-10T07:29:25;5.63;;;3.15;;
49183;SDS011;35021;49.214;12.270;2023-05-10T07:31:52;3.13;;;2.80;;
49183;SDS011;35021;49.214;12.270;2023-05-10T07:34:22;3.78;;;2.75;;
49183;SDS011;35021;49.214;12.270;2023-05-10T07:36:49;3.13;;;2.50;;
49183;SDS011;35021;49.214;12.270;2023-05-10T07:39:16;2.88;;;2.47;;
49183;SDS011;35021;49.214;12.270;2023-05-10T07:41:52;4.45;;;2.80;;
49183;SDS011;35021;49.214;12.270;2023-05-10T07:44:19;3.38;;;3.00;;
49183;SDS011;35021;49.214;12.270;2023-05-10T07:46:46;3.85;;;2.85;;
49183;SDS011;35021;49.214;12.270;2023-05-10T07:49:14;4.95;;;3.00;;
49183;SDS011;35021;49.214;12.270;2023-05-10T07:51:41;3.33;;;2.65;;
49183;SDS011;35021;49.214;12.270;2023-05-10T07:54:11;4.70;;;2.53;;
49183;SDS011;35021;49.214;12.270;2023-05-10T07:56:38;3.55;;;2.55;;
49183;SDS011;35021;49.214;12.270;2023-05-10T07:59:14;4.15;;;2.75;;
49183;SDS011;35021;49.214;12.270;2023-05-10T08:01:42;3.05;;;2.60;;
49183;SDS011;35021;49.214;12.270;2023-05-10T08:04:09;5.00;;;2.90;;
49183;SDS011;35021;49.214;12.270;2023-05-10T08:06:36;3.65;;;2.47;;
49183;SDS011;35021;49.214;12.270;2023-05-10T08:09:03;3.83;;;2.45;;
49183;SDS011;35021;49.214;12.270;2023-05-10T08:11:30;5.03;;;2.85;;
49183;SDS011;35021;49.214;12.270;2023-05-10T08:14:00;4.45;;;2.83;;
49183;SDS011;35021;49.214;12.270;2023-05-10T08:16:27;2.95;;;2.65;;
49183;SDS011;35021;49.214;12.270;2023-05-10T08:18:54;3.97;;;2.92;;
49183;SDS011;35021;49.214;12.270;2023-05-10T08:21:21;3.13;;;2.58;;
49183;SDS011;35021;49.214;12.270;2023-05-10T08:23:48;3.00;;;2.30;;
49183;SDS011;35021;49.214;12.270;2023-05-10T08:26:15;3.45;;;2.60;;
49183;SDS011;35021;49.214;12.270;2023-05-10T08:28:42;3.53;;;2.58;;
49183;SDS011;35021;49.214;12.270;2023-05-10T08:31:09;3.95;;;2.78;;
49183;SDS011;35021;49.214;12.270;2023-05-10T08:33:36;3.35;;;2.38;;
49183;SDS011;35021;49.214;12.270;2023-05-10T08:36:03;2.50;;;2.30;;
49183;SDS011;35021;49.214;12.270;2023-05-10T08:38:30;3.50;;;2.80;;
49183;SDS011;35021;49.214;12.270;2023-05-10T08:40:57;4.03;;;2.30;;
49183;SDS011;35021;49.214;12.270;2023-05-10T08:43:29;3.03;;;2.17;;
49183;SDS011;35021;49.214;12.270;2023-05-10T08:45:56;2.65;;;2.00;;
49183;SDS011;35021;49.214;12.270;2023-05-10T08:48:27;2.78;;;2.25;;
49183;SDS011;35021;49.214;12.270;2023-05-10T08:50:56;2.13;;;1.90;;
49183;SDS011;35021;49.214;12.270;2023-05-10T08:53:25;2.30;;;2.00;;
49183;SDS011;35021;49.214;12.270;2023-05-10T08:55:53;4.22;;;2.05;;
49183;SDS011;35021;49.214;12.270;2023-05-10T08:58:21;3.47;;;1.95;;
49183;SDS011;35021;49.214;12.270;2023-05-10T09:00:49;2.80;;;1.77;;
49183;SDS011;35021;49.214;12.270;2023-05-10T09:03:17;3.35;;;2.53;;
49183;SDS011;35021;49.214;12.270;2023-05-10T09:05:44;2.25;;;1.75;;
49183;SDS011;35021;49.214;12.270;2023-05-10T09:08:13;3.05;;;2.30;;
49183;SDS011;35021;49.214;12.270;2023-05-10T09:10:43;2.08;;;1.80;;
49183;SDS011;35021;49.214;12.270;2023-05-10T09:13:10;2.47;;;2.00;;
49183;SDS011;35021;49.214;12.270;2023-05-10T09:15:38;3.83;;;1.83;;
49183;SDS011;35021;49.214;12.270;2023-05-10T09:18:05;3.22;;;2.17;;
49183;SDS011;35021;49.214;12.270;2023-05-10T09:20:32;4.63;;;2.13;;
49183;SDS011;35021;49.214;12.270;2023-05-10T09:22:59;1.77;;;1.65;;
49183;SDS011;35021;49.214;12.270;2023-05-10T09:25:26;1.98;;;1.55;;
49183;SDS011;35021;49.214;12.270;2023-05-10T09:27:53;3.85;;;1.83;;
49183;SDS011;35021;49.214;12.270;2023-05-10T09:30:28;3.38;;;1.92;;
49183;SDS011;35021;49.214;12.270;2023-05-10T09:32:57;2.30;;;2.00;;
49183;SDS011;35021;49.214;12.270;2023-05-10T09:35:26;3.47;;;1.98;;
49183;SDS011;35021;49.214;12.270;2023-05-10T09:37:58;2.95;;;2.03;;
49183;SDS011;35021;49.214;12.270;2023-05-10T09:40:28;2.95;;;1.80;;
49183;SDS011;35021;49.214;12.270;2023-05-10T09:42:57;2.70;;;2.42;;
49183;SDS011;35021;49.214;12.270;2023-05-10T09:45:28;3.05;;;2.20;;
49183;SDS011;35021;49.214;12.270;2023-05-10T09:47:57;2.35;;;1.98;;
49183;SDS011;35021;49.214;12.270;2023-05-10T09:50:25;2.47;;;1.90;;
49183;SDS011;35021;49.214;12.270;2023-05-10T09:52:57;3.85;;;1.90;;
49183;SDS011;35021;49.214;12.270;2023-05-10T09:55:26;3.28;;;1.70;;
49183;SDS011;35021;49.214;12.270;2023-05-10T09:58:06;3.13;;;1.70;;
49183;SDS011;35021;49.214;12.270;2023-05-10T10:00:37;2.00;;;1.80;;
49183;SDS011;35021;49.214;12.270;2023-05-10T10:03:06;2.20;;;1.95;;
49183;SDS011;35021;49.214;12.270;2023-05-10T10:05:42;2.38;;;2.00;;
49183;SDS011;35021;49.214;12.270;2023-05-10T10:08:11;3.03;;;2.28;;
49183;SDS011;35021;49.214;12.270;2023-05-10T10:10:38;2.40;;;2.00;;
49183;SDS011;35021;49.214;12.270;2023-05-10T10:13:12;2.40;;;2.20;;
49183;SDS011;35021;49.214;12.270;2023-05-10T10:15:40;2.05;;;1.85;;
49183;SDS011;35021;49.214;12.270;2023-05-10T10:18:13;1.80;;;1.70;;
49183;SDS011;35021;49.214;12.270;2023-05-10T10:20:43;2.30;;;2.10;;
49183;SDS011;35021;49.214;12.270;2023-05-10T10:23:11;1.90;;;1.63;;
49183;SDS011;35021;49.214;12.270;2023-05-10T10:25:40;1.80;;;1.70;;
49183;SDS011;35021;49.214;12.270;2023-05-10T10:28:14;2.03;;;1.67;;
49183;SDS011;35021;49.214;12.270;2023-05-10T10:30:53;2.47;;;1.55;;
49183;SDS011;35021;49.214;12.270;2023-05-10T10:36:00;2.63;;;1.50;;
49183;SDS011;35021;49.214;12.270;2023-05-10T10:39:07;1.75;;;1.40;;
49183;SDS011;35021;49.214;12.270;2023-05-10T10:41:30;1.95;;;1.38;;
49183;SDS011;35021;49.214;12.270;2023-05-10T10:44:22;1.58;;;1.40;;
49183;SDS011;35021;49.214;12.270;2023-05-10T10:52:13;1.75;;;1.60;;
49183;SDS011;35021;49.214;12.270;2023-05-10T10:54:54;1.85;;;1.65;;
49183;SDS011;35021;49.214;12.270;2023-05-10T10:58:03;1.83;;;1.65;;
49183;SDS011;35021;49.214;12.270;2023-05-10T11:00:31;2.00;;;1.55;;
49183;SDS011;35021;49.214;12.270;2023-05-10T11:05:43;3.45;;;1.90;;
49183;SDS011;35021;49.214;12.270;2023-05-10T11:10:51;3.05;;;1.83;;
49183;SDS011;35021;49.214;12.270;2023-05-10T11:13:28;2.17;;;1.58;;
49183;SDS011;35021;49.214;12.270;2023-05-10T11:15:56;3.92;;;1.90;;
49183;SDS011;35021;49.214;12.270;2023-05-10T11:20:56;3.00;;;1.80;;
49183;SDS011;35021;49.214;12.270;2023-05-10T11:23:29;2.83;;;1.80;;
49183;SDS011;35021;49.214;12.270;2023-05-10T11:26:07;2.00;;;1.40;;
49183;SDS011;35021;49.214;12.270;2023-05-10T11:28:47;1.83;;;1.30;;
49183;SDS011;35021;49.214;12.270;2023-05-10T11:31:18;2.08;;;1.88;;
49183;SDS011;35021;49.214;12.270;2023-05-10T11:33:48;2.22;;;1.52;;
49183;SDS011;35021;49.214;12.270;2023-05-10T11:36:20;1.52;;;1.35;;
49183;SDS011;35021;49.214;12.270;2023-05-10T11:38:49;2.58;;;1.65;;
49183;SDS011;35021;49.214;12.270;2023-05-10T11:41:17;1.50;;;1.40;;
49183;SDS011;35021;49.214;12.270;2023-05-10T11:43:49;1.85;;;1.40;;
49183;SDS011;35021;49.214;12.270;2023-05-10T11:46:18;2.50;;;1.50;;
49183;SDS011;35021;49.214;12.270;2023-05-10T11:48:47;1.70;;;1.42;;
49183;SDS011;35021;49.214;12.270;2023-05-10T11:51:23;3.20;;;1.50;;
49183;SDS011;35021;49.214;12.270;2023-05-10T11:53:55;2.88;;;1.20;;
49183;SDS011;35021;49.214;12.270;2023-05-10T11:56:23;1.50;;;1.30;;
49183;SDS011;35021;49.214;12.270;2023-05-10T11:58:53;1.55;;;1.27;;
49183;SDS011;35021;49.214;12.270;2023-05-10T12:01:22;2.88;;;1.50;;
49183;SDS011;35021;49.214;12.270;2023-05-10T12:03:51;2.38;;;1.35;;
49183;SDS011;35021;49.214;12.270;2023-05-10T12:06:20;1.50;;;1.20;;
49183;SDS011;35021;49.214;12.270;2023-05-10T12:08:50;1.55;;;1.20;;
49183;SDS011;35021;49.214;12.270;2023-05-10T12:11:20;2.20;;;1.40;;
49183;SDS011;35021;49.214;12.270;2023-05-10T12:13:52;1.30;;;1.20;;
49183;SDS011;35021;49.214;12.270;2023-05-10T12:16:20;2.60;;;1.05;;
49183;SDS011;35021;49.214;12.270;2023-05-10T12:18:49;1.20;;;1.02;;
49183;SDS011;35021;49.214;12.270;2023-05-10T12:21:20;2.08;;;1.20;;
49183;SDS011;35021;49.214;12.270;2023-05-10T12:23:51;1.67;;;1.20;;
49183;SDS011;35021;49.214;12.270;2023-05-10T12:26:23;1.40;;;1.10;;
49183;SDS011;35021;49.214;12.270;2023-05-10T12:28:51;1.60;;;1.10;;
49183;SDS011;35021;49.214;12.270;2023-05-10T12:31:18;1.50;;;1.00;;
49183;SDS011;35021;49.214;12.270;2023-05-10T12:33:46;1.40;;;1.20;;
49183;SDS011;35021;49.214;12.270;2023-05-10T12:36:14;1.20;;;1.10;;
49183;SDS011;35021;49.214;12.270;2023-05-10T12:38:42;1.58;;;1.00;;
49183;SDS011;35021;49.214;12.270;2023-05-10T12:41:16;2.22;;;1.20;;
49183;SDS011;35021;49.214;12.270;2023-05-10T12:43:44;1.40;;;1.17;;
49183;SDS011;35021;49.214;12.270;2023-05-10T12:46:15;1.58;;;1.27;;
49183;SDS011;35021;49.214;12.270;2023-05-10T12:48:44;1.50;;;1.30;;
49183;SDS011;35021;49.214;12.270;2023-05-10T12:51:12;1.27;;;0.93;;
49183;SDS011;35021;49.214;12.270;2023-05-10T12:53:42;1.30;;;1.00;;
49183;SDS011;35021;49.214;12.270;2023-05-10T12:56:14;1.10;;;0.88;;
49183;SDS011;35021;49.214;12.270;2023-05-10T12:58:41;2.00;;;1.05;;
49183;SDS011;35021;49.214;12.270;2023-05-10T13:01:14;3.55;;;1.00;;
49183;SDS011;35021;49.214;12.270;2023-05-10T13:03:41;0.82;;;0.80;;
49183;SDS011;35021;49.214;12.270;2023-05-10T13:06:09;1.20;;;0.70;;
49183;SDS011;35021;49.214;12.270;2023-05-10T13:08:36;1.60;;;1.02;;
49183;SDS011;35021;49.214;12.270;2023-05-10T13:11:03;2.10;;;0.90;;
49183;SDS011;35021;49.214;12.270;2023-05-10T13:13:30;1.85;;;0.80;;
49183;SDS011;35021;49.214;12.270;2023-05-10T13:15:57;1.40;;;0.68;;
49183;SDS011;35021;49.214;12.270;2023-05-10T13:18:24;1.17;;;0.80;;
49183;SDS011;35021;49.214;12.270;2023-05-10T13:20:53;2.55;;;0.90;;
49183;SDS011;35021;49.214;12.270;2023-05-10T13:23:20;1.95;;;0.80;;
49183;SDS011;35021;49.214;12.270;2023-05-10T13:25:47;1.13;;;0.70;;
49183;SDS011;35021;49.214;12.270;2023-05-10T13:28:14;1.85;;;1.05;;
49183;SDS011;35021;49.214;12.270;2023-05-10T13:30:41;1.17;;;0.98;;
49183;SDS011;35021;49.214;12.270;2023-05-10T13:33:09;0.82;;;0.80;;
49183;SDS011;35021;49.214;12.270;2023-05-10T13:35:36;2.08;;;1.30;;
49183;SDS011;35021;49.214;12.270;2023-05-10T13:38:03;3.25;;;0.80;;
49183;SDS011;35021;49.214;12.270;2023-05-10T13:40:30;1.63;;;0.80;;
49183;SDS011;35021;49.214;12.270;2023-05-10T13:42:57;2.03;;;0.85;;
49183;SDS011;35021;49.214;12.270;2023-05-10T13:45:23;1.30;;;0.85;;
49183;SDS011;35021;49.214;12.270;2023-05-10T13:47:50;1.08;;;0.85;;
49183;SDS011;35021;49.214;12.270;2023-05-10T13:50:18;2.78;;;0.88;;
49183;SDS011;35021;49.214;12.270;2023-05-10T13:52:46;1.00;;;0.70;;
49183;SDS011;35021;49.214;12.270;2023-05-10T13:55:13;1.38;;;0.88;;
49183;SDS011;35021;49.214;12.270;2023-05-10T13:57:40;1.60;;;0.68;;
49183;SDS011;35021;49.214;12.270;2023-05-10T14:00:09;1.95;;;1.20;;
49183;SDS011;35021;49.214;12.270;2023-05-10T14:02:37;1.50;;;0.90;;
49183;SDS011;35021;49.214;12.270;2023-05-10T14:05:04;1.58;;;0.80;;
49183;SDS011;35021;49.214;12.270;2023-05-10T14:07:31;2.58;;;0.80;;
49183;SDS011;35021;49.214;12.270;2023-05-10T14:09:58;1.67;;;0.70;;
49183;SDS011;35021;49.214;12.270;2023-05-10T14:12:25;1.50;;;0.80;;
49183;SDS011;35021;49.214;12.270;2023-05-10T14:14:52;1.75;;;0.85;;
49183;SDS011;35021;49.214;12.270;2023-05-10T14:17:19;1.35;;;0.80;;
49183;SDS011;35021;49.214;12.270;2023-05-10T14:19:46;1.27;;;0.90;;
49183;SDS011;35021;49.214;12.270;2023-05-10T14:22:13;1.02;;;0.65;;
49183;SDS011;35021;49.214;12.270;2023-05-10T14:24:40;1.35;;;0.60;;
49183;SDS011;35021;49.214;12.270;2023-05-10T14:27:07;0.90;;;0.70;;
49183;SDS011;35021;49.214;12.270;2023-05-10T14:29:33;2.35;;;1.00;;
49183;SDS011;35021;49.214;12.270;2023-05-10T14:32:00;1.50;;;0.98;;
49183;SDS011;35021;49.214;12.270;2023-05-10T14:34:27;0.70;;;0.70;;
49183;SDS011;35021;49.214;12.270;2023-05-10T14:36:54;1.73;;;0.75;;
49183;SDS011;35021;49.214;12.270;2023-05-10T14:39:22;1.00;;;0.70;;
49183;SDS011;35021;49.214;12.270;2023-05-10T14:41:49;5.43;;;1.20;;
49183;SDS011;35021;49.214;12.270;2023-05-10T14:44:17;1.95;;;0.88;;
49183;SDS011;35021;49.214;12.270;2023-05-10T14:46:44;2.42;;;0.75;;
49183;SDS011;35021;49.214;12.270;2023-05-10T14:49:11;2.05;;;0.77;;
49183;SDS011;35021;49.214;12.270;2023-05-10T14:51:38;1.85;;;0.98;;
49183;SDS011;35021;49.214;12.270;2023-05-10T14:54:05;2.22;;;0.95;;
49183;SDS011;35021;49.214;12.270;2023-05-10T14:56:32;2.45;;;1.10;;
49183;SDS011;35021;49.214;12.270;2023-05-10T14:58:59;4.60;;;1.85;;
49183;SDS011;35021;49.214;12.270;2023-05-10T15:01:27;3.97;;;1.90;;
49183;SDS011;35021;49.214;12.270;2023-05-10T15:03:55;2.15;;;1.85;;
49183;SDS011;35021;49.214;12.270;2023-05-10T15:06:23;4.30;;;2.38;;
49183;SDS011;35021;49.214;12.270;2023-05-10T15:08:56;2.55;;;1.60;;
49183;SDS011;35021;49.214;12.270;2023-05-10T15:11:23;3.47;;;1.45;;